sensor_id;sensor_type;location;lat;lon;timestamp;P1;durP1;ratioP1;P2;durP2;ratioP2
13975;SDS011;7062;49.792;9.946;2023-04-03T00:01:09;6.50;;;2.53;;
13975;SDS011;7062;49.792;9.946;2023-04-03T00:03:35;3.90;;;2.05;;
13975;SDS011;7062;49.792;9.946;2023-04-03T00:06:01;3.65;;;2.10;;
13975;SDS011;7062;49.792;9.946;2023-04-03T00:08:27;3.30;;;2.13;;
13975;SDS011;7062;49.792;9.946;2023-04-03T00:10:55;3.83;;;2.20;;
13975;SDS011;7062;49.792;9.946;2023-04-03T00:13:22;3.50;;;2.75;;
13975;SDS011;7062;49.792;9.946;2023-04-03T00:15:48;9.75;;;2.95;;
13975;SDS011;7062;49.792;9.946;2023-04-03T00:18:14;5.33;;;1.80;;
13975;SDS011;7062;49.792;9.946;2023-04-03T00:20:40;2.57;;;2.03;;
13975;SDS011;7062;49.792;9.946;2023-04-03T00:23:06;5.83;;;2.27;;
13975;SDS011;7062;49.792;9.946;2023-04-03T00:25:32;3.80;;;2.30;;
13975;SDS011;7062;49.792;9.946;2023-04-03T00:27:58;4.15;;;2.30;;
13975;SDS011;7062;49.792;9.946;2023-04-03T00:30:24;4.43;;;2.58;;
13975;SDS011;7062;49.792;9.946;2023-04-03T00:32:50;4.83;;;2.00;;
13975;SDS011;7062;49.792;9.946;2023-04-03T00:35:17;3.75;;;2.58;;
13975;SDS011;7062;49.792;9.946;2023-04-03T00:37:44;4.13;;;2.40;;
13975;SDS011;7062;49.792;9.946;2023-04-03T00:40:10;5.70;;;2.60;;
13975;SDS011;7062;49.792;9.946;2023-04-03T00:42:39;3.70;;;2.03;;
13975;SDS011;7062;49.792;9.946;2023-04-03T00:47:31;4.80;;;2.10;;
13975;SDS011;7062;49.792;9.946;2023-04-03T00:49:57;2.40;;;2.05;;
13975;SDS011;7062;49.792;9.946;2023-04-03T00:52:26;2.77;;;1.90;;
13975;SDS011;7062;49.792;9.946;2023-04-03T00:54:57;5.15;;;2.20;;
13975;SDS011;7062;49.792;9.946;2023-04-03T00:57:27;2.45;;;2.10;;
13975;SDS011;7062;49.792;9.946;2023-04-03T00:59:57;6.30;;;2.67;;
13975;SDS011;7062;49.792;9.946;2023-04-03T01:02:26;2.95;;;2.13;;
13975;SDS011;7062;49.792;9.946;2023-04-03T01:04:52;2.67;;;1.80;;
13975;SDS011;7062;49.792;9.946;2023-04-03T01:07:19;3.80;;;1.90;;
13975;SDS011;7062;49.792;9.946;2023-04-03T01:09:53;4.60;;;2.88;;
13975;SDS011;7062;49.792;9.946;2023-04-03T01:12:23;3.08;;;2.33;;
13975;SDS011;7062;49.792;9.946;2023-04-03T01:14:53;3.08;;;2.00;;
13975;SDS011;7062;49.792;9.946;2023-04-03T01:17:42;5.45;;;2.70;;
13975;SDS011;7062;49.792;9.946;2023-04-03T01:25:43;5.78;;;2.80;;
13975;SDS011;7062;49.792;9.946;2023-04-03T01:28:13;10.57;;;3.05;;
13975;SDS011;7062;49.792;9.946;2023-04-03T01:33:28;3.75;;;2.58;;
13975;SDS011;7062;49.792;9.946;2023-04-03T01:35:55;3.70;;;2.05;;
13975;SDS011;7062;49.792;9.946;2023-04-03T01:38:20;4.07;;;2.43;;
13975;SDS011;7062;49.792;9.946;2023-04-03T01:40:46;3.10;;;2.33;;
13975;SDS011;7062;49.792;9.946;2023-04-03T01:43:12;4.40;;;2.10;;
13975;SDS011;7062;49.792;9.946;2023-04-03T01:45:37;3.57;;;2.00;;
13975;SDS011;7062;49.792;9.946;2023-04-03T01:48:03;6.57;;;2.30;;
13975;SDS011;7062;49.792;9.946;2023-04-03T01:50:29;4.93;;;1.70;;
13975;SDS011;7062;49.792;9.946;2023-04-03T01:52:55;5.33;;;3.30;;
13975;SDS011;7062;49.792;9.946;2023-04-03T01:55:20;3.67;;;2.27;;
13975;SDS011;7062;49.792;9.946;2023-04-03T01:57:46;3.17;;;2.27;;
13975;SDS011;7062;49.792;9.946;2023-04-03T02:00:12;4.40;;;2.10;;
13975;SDS011;7062;49.792;9.946;2023-04-03T02:02:38;2.97;;;2.00;;
13975;SDS011;7062;49.792;9.946;2023-04-03T02:05:04;4.30;;;2.90;;
13975;SDS011;7062;49.792;9.946;2023-04-03T02:07:30;4.78;;;2.28;;
13975;SDS011;7062;49.792;9.946;2023-04-03T02:09:56;2.90;;;2.30;;
13975;SDS011;7062;49.792;9.946;2023-04-03T02:12:22;2.87;;;1.97;;
13975;SDS011;7062;49.792;9.946;2023-04-03T02:14:47;4.83;;;2.90;;
13975;SDS011;7062;49.792;9.946;2023-04-03T02:17:13;6.17;;;2.60;;
13975;SDS011;7062;49.792;9.946;2023-04-03T02:19:40;3.03;;;1.98;;
13975;SDS011;7062;49.792;9.946;2023-04-03T02:22:05;3.57;;;1.50;;
13975;SDS011;7062;49.792;9.946;2023-04-03T02:24:31;1.97;;;1.50;;
13975;SDS011;7062;49.792;9.946;2023-04-03T02:26:57;1.77;;;1.60;;
13975;SDS011;7062;49.792;9.946;2023-04-03T02:29:23;2.97;;;1.70;;
13975;SDS011;7062;49.792;9.946;2023-04-03T02:31:48;2.97;;;2.03;;
13975;SDS011;7062;49.792;9.946;2023-04-03T02:34:14;5.55;;;2.55;;
13975;SDS011;7062;49.792;9.946;2023-04-03T02:36:40;5.53;;;2.47;;
13975;SDS011;7062;49.792;9.946;2023-04-03T02:39:06;2.57;;;2.10;;
13975;SDS011;7062;49.792;9.946;2023-04-03T02:41:32;4.30;;;2.10;;
13975;SDS011;7062;49.792;9.946;2023-04-03T02:44:01;2.90;;;1.92;;
13975;SDS011;7062;49.792;9.946;2023-04-03T02:46:27;3.88;;;2.28;;
13975;SDS011;7062;49.792;9.946;2023-04-03T02:48:53;4.80;;;2.40;;
13975;SDS011;7062;49.792;9.946;2023-04-03T02:51:19;3.27;;;2.17;;
13975;SDS011;7062;49.792;9.946;2023-04-03T02:53:45;3.40;;;2.20;;
13975;SDS011;7062;49.792;9.946;2023-04-03T02:56:10;5.10;;;2.50;;
13975;SDS011;7062;49.792;9.946;2023-04-03T02:58:36;5.40;;;2.30;;
13975;SDS011;7062;49.792;9.946;2023-04-03T03:01:02;4.93;;;2.47;;
13975;SDS011;7062;49.792;9.946;2023-04-03T03:03:28;5.35;;;2.63;;
13975;SDS011;7062;49.792;9.946;2023-04-03T03:08:33;3.03;;;2.28;;
13975;SDS011;7062;49.792;9.946;2023-04-03T03:10:59;3.53;;;2.10;;
13975;SDS011;7062;49.792;9.946;2023-04-03T03:13:25;3.97;;;2.27;;
13975;SDS011;7062;49.792;9.946;2023-04-03T03:15:51;6.47;;;2.75;;
13975;SDS011;7062;49.792;9.946;2023-04-03T03:18:16;3.40;;;2.13;;
13975;SDS011;7062;49.792;9.946;2023-04-03T03:20:42;4.03;;;2.57;;
13975;SDS011;7062;49.792;9.946;2023-04-03T03:23:08;5.53;;;3.10;;
13975;SDS011;7062;49.792;9.946;2023-04-03T03:25:37;6.20;;;3.47;;
13975;SDS011;7062;49.792;9.946;2023-04-03T03:28:06;5.38;;;3.00;;
13975;SDS011;7062;49.792;9.946;2023-04-03T03:30:32;4.90;;;2.70;;
13975;SDS011;7062;49.792;9.946;2023-04-03T03:32:58;4.13;;;3.13;;
13975;SDS011;7062;49.792;9.946;2023-04-03T03:35:24;3.65;;;3.33;;
13975;SDS011;7062;49.792;9.946;2023-04-03T03:37:50;2.80;;;2.47;;
13975;SDS011;7062;49.792;9.946;2023-04-03T03:40:15;3.47;;;2.17;;
13975;SDS011;7062;49.792;9.946;2023-04-03T03:42:41;4.40;;;3.30;;
13975;SDS011;7062;49.792;9.946;2023-04-03T03:45:07;4.97;;;3.13;;
13975;SDS011;7062;49.792;9.946;2023-04-03T03:47:33;5.25;;;3.83;;
13975;SDS011;7062;49.792;9.946;2023-04-03T03:49:58;4.37;;;2.47;;
13975;SDS011;7062;49.792;9.946;2023-04-03T03:52:25;5.68;;;2.47;;
13975;SDS011;7062;49.792;9.946;2023-04-03T03:54:51;3.70;;;2.53;;
13975;SDS011;7062;49.792;9.946;2023-04-03T03:57:16;2.30;;;1.93;;
13975;SDS011;7062;49.792;9.946;2023-04-03T03:59:42;5.13;;;1.97;;
13975;SDS011;7062;49.792;9.946;2023-04-03T04:02:09;3.08;;;2.25;;
13975;SDS011;7062;49.792;9.946;2023-04-03T04:04:35;4.45;;;2.38;;
13975;SDS011;7062;49.792;9.946;2023-04-03T04:07:02;4.40;;;2.20;;
13975;SDS011;7062;49.792;9.946;2023-04-03T04:09:28;3.67;;;2.38;;
13975;SDS011;7062;49.792;9.946;2023-04-03T04:11:54;3.23;;;1.73;;
13975;SDS011;7062;49.792;9.946;2023-04-03T04:14:20;5.47;;;1.97;;
13975;SDS011;7062;49.792;9.946;2023-04-03T04:16:46;3.63;;;2.07;;
13975;SDS011;7062;49.792;9.946;2023-04-03T04:19:12;4.43;;;3.22;;
13975;SDS011;7062;49.792;9.946;2023-04-03T04:21:38;5.37;;;2.00;;
13975;SDS011;7062;49.792;9.946;2023-04-03T04:24:04;4.97;;;2.70;;
13975;SDS011;7062;49.792;9.946;2023-04-03T04:26:30;8.27;;;2.85;;
13975;SDS011;7062;49.792;9.946;2023-04-03T04:28:56;2.57;;;2.37;;
13975;SDS011;7062;49.792;9.946;2023-04-03T04:31:22;3.50;;;2.50;;
13975;SDS011;7062;49.792;9.946;2023-04-03T04:33:48;5.00;;;2.80;;
13975;SDS011;7062;49.792;9.946;2023-04-03T04:36:13;5.27;;;1.97;;
13975;SDS011;7062;49.792;9.946;2023-04-03T04:38:39;7.15;;;2.30;;
13975;SDS011;7062;49.792;9.946;2023-04-03T04:41:05;7.13;;;3.28;;
13975;SDS011;7062;49.792;9.946;2023-04-03T04:43:31;3.40;;;2.03;;
13975;SDS011;7062;49.792;9.946;2023-04-03T04:46:01;8.45;;;2.92;;
13975;SDS011;7062;49.792;9.946;2023-04-03T04:48:28;4.68;;;2.40;;
13975;SDS011;7062;49.792;9.946;2023-04-03T04:50:54;11.10;;;2.40;;
13975;SDS011;7062;49.792;9.946;2023-04-03T04:53:20;6.50;;;2.17;;
13975;SDS011;7062;49.792;9.946;2023-04-03T04:55:45;4.50;;;2.70;;
13975;SDS011;7062;49.792;9.946;2023-04-03T04:58:11;3.97;;;2.57;;
13975;SDS011;7062;49.792;9.946;2023-04-03T05:00:36;3.63;;;2.10;;
13975;SDS011;7062;49.792;9.946;2023-04-03T05:03:02;3.97;;;2.43;;
13975;SDS011;7062;49.792;9.946;2023-04-03T05:05:28;5.80;;;2.43;;
13975;SDS011;7062;49.792;9.946;2023-04-03T05:07:53;2.83;;;2.37;;
13975;SDS011;7062;49.792;9.946;2023-04-03T05:10:19;6.43;;;2.57;;
13975;SDS011;7062;49.792;9.946;2023-04-03T05:12:45;2.47;;;2.28;;
13975;SDS011;7062;49.792;9.946;2023-04-03T05:15:11;5.20;;;3.10;;
13975;SDS011;7062;49.792;9.946;2023-04-03T05:17:36;4.90;;;2.80;;
13975;SDS011;7062;49.792;9.946;2023-04-03T05:20:03;3.63;;;2.50;;
13975;SDS011;7062;49.792;9.946;2023-04-03T05:22:29;4.78;;;3.55;;
13975;SDS011;7062;49.792;9.946;2023-04-03T05:24:55;5.73;;;2.77;;
13975;SDS011;7062;49.792;9.946;2023-04-03T05:27:21;4.97;;;2.63;;
13975;SDS011;7062;49.792;9.946;2023-04-03T05:29:49;6.18;;;2.92;;
13975;SDS011;7062;49.792;9.946;2023-04-03T05:32:15;3.92;;;3.25;;
13975;SDS011;7062;49.792;9.946;2023-04-03T05:34:44;4.82;;;3.00;;
13975;SDS011;7062;49.792;9.946;2023-04-03T05:37:10;7.10;;;2.30;;
13975;SDS011;7062;49.792;9.946;2023-04-03T05:39:35;7.23;;;2.73;;
13975;SDS011;7062;49.792;9.946;2023-04-03T05:42:03;5.22;;;2.83;;
13975;SDS011;7062;49.792;9.946;2023-04-03T05:44:29;6.07;;;2.13;;
13975;SDS011;7062;49.792;9.946;2023-04-03T05:46:55;4.03;;;3.13;;
13975;SDS011;7062;49.792;9.946;2023-04-03T05:49:20;3.40;;;2.70;;
13975;SDS011;7062;49.792;9.946;2023-04-03T05:51:46;3.63;;;2.47;;
13975;SDS011;7062;49.792;9.946;2023-04-03T05:56:45;4.18;;;2.70;;
13975;SDS011;7062;49.792;9.946;2023-04-03T05:59:11;3.30;;;2.40;;
13975;SDS011;7062;49.792;9.946;2023-04-03T06:01:36;4.63;;;3.00;;
13975;SDS011;7062;49.792;9.946;2023-04-03T06:04:02;3.13;;;2.67;;
13975;SDS011;7062;49.792;9.946;2023-04-03T06:06:44;5.13;;;2.80;;
13975;SDS011;7062;49.792;9.946;2023-04-03T06:09:13;3.47;;;2.30;;
13975;SDS011;7062;49.792;9.946;2023-04-03T06:11:40;2.42;;;2.22;;
13975;SDS011;7062;49.792;9.946;2023-04-03T06:14:06;5.22;;;2.97;;
13975;SDS011;7062;49.792;9.946;2023-04-03T06:16:33;4.20;;;2.50;;
13975;SDS011;7062;49.792;9.946;2023-04-03T06:18:58;4.53;;;2.43;;
13975;SDS011;7062;49.792;9.946;2023-04-03T06:21:24;4.70;;;2.23;;
13975;SDS011;7062;49.792;9.946;2023-04-03T06:23:51;4.43;;;2.20;;
13975;SDS011;7062;49.792;9.946;2023-04-03T06:26:16;3.57;;;2.60;;
13975;SDS011;7062;49.792;9.946;2023-04-03T06:28:42;4.20;;;2.30;;
13975;SDS011;7062;49.792;9.946;2023-04-03T06:31:08;2.90;;;2.23;;
13975;SDS011;7062;49.792;9.946;2023-04-03T06:33:34;6.90;;;2.63;;
13975;SDS011;7062;49.792;9.946;2023-04-03T06:36:03;5.33;;;2.70;;
13975;SDS011;7062;49.792;9.946;2023-04-03T06:38:29;4.45;;;2.90;;
13975;SDS011;7062;49.792;9.946;2023-04-03T06:40:55;4.03;;;2.80;;
13975;SDS011;7062;49.792;9.946;2023-04-03T06:43:21;7.10;;;2.85;;
13975;SDS011;7062;49.792;9.946;2023-04-03T06:45:47;6.07;;;2.60;;
13975;SDS011;7062;49.792;9.946;2023-04-03T06:48:13;6.37;;;2.53;;
13975;SDS011;7062;49.792;9.946;2023-04-03T06:50:39;5.87;;;3.17;;
13975;SDS011;7062;49.792;9.946;2023-04-03T06:53:05;6.40;;;2.97;;
13975;SDS011;7062;49.792;9.946;2023-04-03T06:55:31;5.78;;;2.83;;
13975;SDS011;7062;49.792;9.946;2023-04-03T06:57:57;3.27;;;2.47;;
13975;SDS011;7062;49.792;9.946;2023-04-03T07:00:23;3.80;;;2.77;;
13975;SDS011;7062;49.792;9.946;2023-04-03T07:02:49;3.88;;;2.08;;
13975;SDS011;7062;49.792;9.946;2023-04-03T07:05:16;7.15;;;3.15;;
13975;SDS011;7062;49.792;9.946;2023-04-03T07:07:42;4.30;;;2.37;;
13975;SDS011;7062;49.792;9.946;2023-04-03T07:10:08;4.78;;;3.80;;
13975;SDS011;7062;49.792;9.946;2023-04-03T07:12:35;2.90;;;2.30;;
13975;SDS011;7062;49.792;9.946;2023-04-03T07:15:01;6.43;;;2.70;;
13975;SDS011;7062;49.792;9.946;2023-04-03T07:17:27;3.63;;;2.75;;
13975;SDS011;7062;49.792;9.946;2023-04-03T07:19:53;4.37;;;2.10;;
13975;SDS011;7062;49.792;9.946;2023-04-03T07:22:19;6.10;;;2.70;;
13975;SDS011;7062;49.792;9.946;2023-04-03T07:24:44;4.27;;;2.27;;
13975;SDS011;7062;49.792;9.946;2023-04-03T07:27:11;4.85;;;2.92;;
13975;SDS011;7062;49.792;9.946;2023-04-03T07:29:37;8.30;;;2.30;;
13975;SDS011;7062;49.792;9.946;2023-04-03T07:32:04;3.60;;;2.10;;
13975;SDS011;7062;49.792;9.946;2023-04-03T07:34:30;4.32;;;2.03;;
13975;SDS011;7062;49.792;9.946;2023-04-03T07:36:57;2.95;;;1.90;;
13975;SDS011;7062;49.792;9.946;2023-04-03T07:39:23;4.38;;;2.47;;
13975;SDS011;7062;49.792;9.946;2023-04-03T07:41:49;4.13;;;2.17;;
13975;SDS011;7062;49.792;9.946;2023-04-03T07:44:15;7.87;;;2.43;;
13975;SDS011;7062;49.792;9.946;2023-04-03T07:46:41;2.90;;;2.10;;
13975;SDS011;7062;49.792;9.946;2023-04-03T07:49:07;7.40;;;2.08;;
13975;SDS011;7062;49.792;9.946;2023-04-03T07:51:33;6.00;;;2.13;;
13975;SDS011;7062;49.792;9.946;2023-04-03T07:53:58;5.30;;;2.10;;
13975;SDS011;7062;49.792;9.946;2023-04-03T07:56:24;4.70;;;2.10;;
13975;SDS011;7062;49.792;9.946;2023-04-03T07:58:50;2.77;;;2.07;;
13975;SDS011;7062;49.792;9.946;2023-04-03T08:01:15;4.10;;;2.20;;
13975;SDS011;7062;49.792;9.946;2023-04-03T08:03:41;2.93;;;2.07;;
13975;SDS011;7062;49.792;9.946;2023-04-03T08:06:07;5.70;;;2.73;;
13975;SDS011;7062;49.792;9.946;2023-04-03T08:08:34;3.50;;;1.83;;
13975;SDS011;7062;49.792;9.946;2023-04-03T08:11:00;2.95;;;2.08;;
13975;SDS011;7062;49.792;9.946;2023-04-03T08:13:31;2.30;;;1.50;;
13975;SDS011;7062;49.792;9.946;2023-04-03T08:15:57;3.55;;;2.20;;
13975;SDS011;7062;49.792;9.946;2023-04-03T08:18:24;4.13;;;1.98;;
13975;SDS011;7062;49.792;9.946;2023-04-03T08:20:51;7.20;;;2.30;;
13975;SDS011;7062;49.792;9.946;2023-04-03T08:23:17;4.85;;;2.30;;
13975;SDS011;7062;49.792;9.946;2023-04-03T08:25:44;7.05;;;2.42;;
13975;SDS011;7062;49.792;9.946;2023-04-03T08:28:10;5.50;;;2.45;;
13975;SDS011;7062;49.792;9.946;2023-04-03T08:30:38;5.85;;;2.55;;
13975;SDS011;7062;49.792;9.946;2023-04-03T08:33:06;2.80;;;1.85;;
13975;SDS011;7062;49.792;9.946;2023-04-03T08:35:32;7.18;;;3.47;;
13975;SDS011;7062;49.792;9.946;2023-04-03T08:37:57;5.30;;;2.67;;
13975;SDS011;7062;49.792;9.946;2023-04-03T08:40:23;5.90;;;2.57;;
13975;SDS011;7062;49.792;9.946;2023-04-03T08:48:12;4.23;;;2.17;;
13975;SDS011;7062;49.792;9.946;2023-04-03T08:50:43;5.23;;;2.30;;
13975;SDS011;7062;49.792;9.946;2023-04-03T08:53:16;8.80;;;2.30;;
13975;SDS011;7062;49.792;9.946;2023-04-03T08:55:49;4.07;;;2.10;;
13975;SDS011;7062;49.792;9.946;2023-04-03T08:58:19;4.10;;;2.03;;
13975;SDS011;7062;49.792;9.946;2023-04-03T09:03:17;3.43;;;1.83;;
13975;SDS011;7062;49.792;9.946;2023-04-03T09:10:58;3.37;;;1.77;;
13975;SDS011;7062;49.792;9.946;2023-04-03T09:13:43;4.30;;;1.53;;
13975;SDS011;7062;49.792;9.946;2023-04-03T09:21:58;4.37;;;1.90;;
13975;SDS011;7062;49.792;9.946;2023-04-03T09:24:38;4.13;;;2.33;;
13975;SDS011;7062;49.792;9.946;2023-04-03T09:27:06;2.80;;;2.03;;
13975;SDS011;7062;49.792;9.946;2023-04-03T09:29:37;4.83;;;1.53;;
13975;SDS011;7062;49.792;9.946;2023-04-03T09:32:19;3.93;;;1.57;;
13975;SDS011;7062;49.792;9.946;2023-04-03T09:34:46;3.37;;;1.50;;
13975;SDS011;7062;49.792;9.946;2023-04-03T09:37:32;3.10;;;1.63;;
13975;SDS011;7062;49.792;9.946;2023-04-03T09:39:58;2.50;;;1.17;;
13975;SDS011;7062;49.792;9.946;2023-04-03T09:42:24;4.83;;;1.13;;
13975;SDS011;7062;49.792;9.946;2023-04-03T09:44:58;3.83;;;1.60;;
13975;SDS011;7062;49.792;9.946;2023-04-03T09:52:54;4.10;;;1.23;;
13975;SDS011;7062;49.792;9.946;2023-04-03T09:55:24;3.47;;;1.40;;
13975;SDS011;7062;49.792;9.946;2023-04-03T09:57:57;2.40;;;1.10;;
13975;SDS011;7062;49.792;9.946;2023-04-03T10:00:30;2.50;;;1.17;;
13975;SDS011;7062;49.792;9.946;2023-04-03T10:03:08;4.50;;;1.20;;
13975;SDS011;7062;49.792;9.946;2023-04-03T10:06:00;2.00;;;1.10;;
13975;SDS011;7062;49.792;9.946;2023-04-03T10:08:33;4.37;;;1.20;;
13975;SDS011;7062;49.792;9.946;2023-04-03T10:11:17;2.77;;;1.10;;
13975;SDS011;7062;49.792;9.946;2023-04-03T10:13:51;2.83;;;1.40;;
13975;SDS011;7062;49.792;9.946;2023-04-03T10:16:22;2.23;;;1.20;;
13975;SDS011;7062;49.792;9.946;2023-04-03T10:29:42;2.73;;;1.60;;
13975;SDS011;7062;49.792;9.946;2023-04-03T10:34:46;4.10;;;1.37;;
13975;SDS011;7062;49.792;9.946;2023-04-03T10:37:21;2.60;;;1.30;;
13975;SDS011;7062;49.792;9.946;2023-04-03T10:39:57;2.60;;;1.20;;
13975;SDS011;7062;49.792;9.946;2023-04-03T10:50:39;2.07;;;1.40;;
13975;SDS011;7062;49.792;9.946;2023-04-03T10:58:29;2.03;;;1.13;;
13975;SDS011;7062;49.792;9.946;2023-04-03T11:01:03;2.57;;;1.00;;
13975;SDS011;7062;49.792;9.946;2023-04-03T11:03:38;4.10;;;1.30;;
13975;SDS011;7062;49.792;9.946;2023-04-03T11:06:13;3.67;;;2.23;;
13975;SDS011;7062;49.792;9.946;2023-04-03T11:08:44;2.57;;;1.97;;
13975;SDS011;7062;49.792;9.946;2023-04-03T11:11:17;2.60;;;1.60;;
13975;SDS011;7062;49.792;9.946;2023-04-03T11:16:31;1.43;;;1.33;;
13975;SDS011;7062;49.792;9.946;2023-04-03T11:19:12;2.03;;;1.20;;
13975;SDS011;7062;49.792;9.946;2023-04-03T11:21:47;3.33;;;1.60;;
13975;SDS011;7062;49.792;9.946;2023-04-03T11:24:24;2.40;;;1.27;;
13975;SDS011;7062;49.792;9.946;2023-04-03T11:26:52;4.60;;;1.60;;
13975;SDS011;7062;49.792;9.946;2023-04-03T11:29:22;2.00;;;1.17;;
13975;SDS011;7062;49.792;9.946;2023-04-03T11:34:56;4.40;;;1.50;;
13975;SDS011;7062;49.792;9.946;2023-04-03T11:37:35;2.87;;;1.30;;
13975;SDS011;7062;49.792;9.946;2023-04-03T11:40:20;1.77;;;0.90;;
13975;SDS011;7062;49.792;9.946;2023-04-03T11:45:49;1.63;;;0.90;;
13975;SDS011;7062;49.792;9.946;2023-04-03T11:48:44;2.77;;;1.40;;
13975;SDS011;7062;49.792;9.946;2023-04-03T11:53:38;1.80;;;0.80;;
13975;SDS011;7062;49.792;9.946;2023-04-03T12:04:14;2.07;;;0.90;;
13975;SDS011;7062;49.792;9.946;2023-04-03T12:06:42;0.77;;;0.73;;
13975;SDS011;7062;49.792;9.946;2023-04-03T12:17:44;1.47;;;0.90;;
13975;SDS011;7062;49.792;9.946;2023-04-03T12:23:26;1.10;;;0.70;;
13975;SDS011;7062;49.792;9.946;2023-04-03T12:28:47;2.97;;;1.13;;
13975;SDS011;7062;49.792;9.946;2023-04-03T12:31:14;1.50;;;0.70;;
13975;SDS011;7062;49.792;9.946;2023-04-03T12:36:40;1.97;;;1.30;;
13975;SDS011;7062;49.792;9.946;2023-04-03T12:39:20;4.47;;;0.90;;
13975;SDS011;7062;49.792;9.946;2023-04-03T12:42:13;1.63;;;1.00;;
13975;SDS011;7062;49.792;9.946;2023-04-03T12:45:09;1.40;;;0.70;;
13975;SDS011;7062;49.792;9.946;2023-04-03T12:47:45;0.87;;;0.70;;
13975;SDS011;7062;49.792;9.946;2023-04-03T12:50:17;1.97;;;1.13;;
13975;SDS011;7062;49.792;9.946;2023-04-03T12:55:53;2.53;;;1.10;;
13975;SDS011;7062;49.792;9.946;2023-04-03T13:00:59;3.53;;;1.03;;
13975;SDS011;7062;49.792;9.946;2023-04-03T13:03:26;2.57;;;1.70;;
13975;SDS011;7062;49.792;9.946;2023-04-03T13:06:02;3.00;;;1.17;;
13975;SDS011;7062;49.792;9.946;2023-04-03T13:08:29;5.37;;;1.93;;
13975;SDS011;7062;49.792;9.946;2023-04-03T13:10:59;2.60;;;1.40;;
13975;SDS011;7062;49.792;9.946;2023-04-03T13:13:27;0.90;;;0.67;;
13975;SDS011;7062;49.792;9.946;2023-04-03T13:15:54;1.43;;;0.60;;
13975;SDS011;7062;49.792;9.946;2023-04-03T13:18:30;1.43;;;0.80;;
13975;SDS011;7062;49.792;9.946;2023-04-03T13:21:03;1.83;;;0.70;;
13975;SDS011;7062;49.792;9.946;2023-04-03T13:23:33;4.17;;;1.60;;
13975;SDS011;7062;49.792;9.946;2023-04-03T13:26:03;3.73;;;1.60;;
13975;SDS011;7062;49.792;9.946;2023-04-03T13:28:31;2.63;;;1.80;;
13975;SDS011;7062;49.792;9.946;2023-04-03T13:31:06;3.53;;;1.07;;
13975;SDS011;7062;49.792;9.946;2023-04-03T13:33:33;2.60;;;1.10;;
13975;SDS011;7062;49.792;9.946;2023-04-03T13:38:45;3.20;;;1.33;;
13975;SDS011;7062;49.792;9.946;2023-04-03T13:41:31;1.67;;;0.90;;
13975;SDS011;7062;49.792;9.946;2023-04-03T13:50:12;1.47;;;0.90;;
13975;SDS011;7062;49.792;9.946;2023-04-03T13:52:54;1.10;;;0.77;;
13975;SDS011;7062;49.792;9.946;2023-04-03T13:55:26;2.67;;;0.90;;
13975;SDS011;7062;49.792;9.946;2023-04-03T13:57:59;1.37;;;0.80;;
13975;SDS011;7062;49.792;9.946;2023-04-03T14:00:48;2.77;;;0.97;;
13975;SDS011;7062;49.792;9.946;2023-04-03T14:06:11;1.70;;;0.73;;
13975;SDS011;7062;49.792;9.946;2023-04-03T14:08:38;1.07;;;0.77;;
13975;SDS011;7062;49.792;9.946;2023-04-03T14:11:05;0.87;;;0.70;;
13975;SDS011;7062;49.792;9.946;2023-04-03T14:13:31;1.77;;;0.83;;
13975;SDS011;7062;49.792;9.946;2023-04-03T14:15:57;2.10;;;1.37;;
13975;SDS011;7062;49.792;9.946;2023-04-03T14:18:23;1.07;;;0.90;;
13975;SDS011;7062;49.792;9.946;2023-04-03T14:20:49;1.63;;;0.80;;
13975;SDS011;7062;49.792;9.946;2023-04-03T14:23:15;1.20;;;0.77;;
13975;SDS011;7062;49.792;9.946;2023-04-03T14:25:41;1.20;;;0.77;;
13975;SDS011;7062;49.792;9.946;2023-04-03T14:28:18;1.20;;;0.80;;
13975;SDS011;7062;49.792;9.946;2023-04-03T14:30:46;3.63;;;1.30;;
13975;SDS011;7062;49.792;9.946;2023-04-03T14:33:16;2.80;;;1.43;;
13975;SDS011;7062;49.792;9.946;2023-04-03T14:35:44;3.63;;;1.20;;
13975;SDS011;7062;49.792;9.946;2023-04-03T14:38:27;2.07;;;1.20;;
13975;SDS011;7062;49.792;9.946;2023-04-03T14:40:55;2.63;;;0.70;;
13975;SDS011;7062;49.792;9.946;2023-04-03T14:43:21;0.97;;;0.70;;
13975;SDS011;7062;49.792;9.946;2023-04-03T14:45:48;1.70;;;1.10;;
13975;SDS011;7062;49.792;9.946;2023-04-03T14:48:17;3.63;;;1.10;;
13975;SDS011;7062;49.792;9.946;2023-04-03T14:50:45;2.63;;;0.80;;
13975;SDS011;7062;49.792;9.946;2023-04-03T14:53:12;2.50;;;0.83;;
13975;SDS011;7062;49.792;9.946;2023-04-03T14:55:40;1.40;;;0.70;;
13975;SDS011;7062;49.792;9.946;2023-04-03T14:58:13;4.00;;;1.23;;
13975;SDS011;7062;49.792;9.946;2023-04-03T15:00:40;2.13;;;1.60;;
13975;SDS011;7062;49.792;9.946;2023-04-03T15:03:09;2.20;;;1.30;;
13975;SDS011;7062;49.792;9.946;2023-04-03T15:05:45;5.40;;;1.30;;
13975;SDS011;7062;49.792;9.946;2023-04-03T15:08:17;2.90;;;1.40;;
13975;SDS011;7062;49.792;9.946;2023-04-03T15:10:48;2.87;;;1.20;;
13975;SDS011;7062;49.792;9.946;2023-04-03T15:13:14;1.77;;;0.93;;
13975;SDS011;7062;49.792;9.946;2023-04-03T15:15:41;2.20;;;1.00;;
13975;SDS011;7062;49.792;9.946;2023-04-03T15:18:07;2.23;;;0.93;;
13975;SDS011;7062;49.792;9.946;2023-04-03T15:20:40;2.73;;;1.17;;
13975;SDS011;7062;49.792;9.946;2023-04-03T15:23:06;2.00;;;0.60;;
13975;SDS011;7062;49.792;9.946;2023-04-03T15:25:32;2.13;;;1.00;;
13975;SDS011;7062;49.792;9.946;2023-04-03T15:27:58;2.90;;;0.90;;
13975;SDS011;7062;49.792;9.946;2023-04-03T15:30:24;2.30;;;0.80;;
13975;SDS011;7062;49.792;9.946;2023-04-03T15:32:51;5.03;;;1.07;;
13975;SDS011;7062;49.792;9.946;2023-04-03T15:35:18;4.20;;;1.00;;
13975;SDS011;7062;49.792;9.946;2023-04-03T15:37:43;1.70;;;1.00;;
13975;SDS011;7062;49.792;9.946;2023-04-03T15:40:09;3.10;;;0.90;;
13975;SDS011;7062;49.792;9.946;2023-04-03T15:42:35;2.33;;;1.00;;
13975;SDS011;7062;49.792;9.946;2023-04-03T15:45:02;2.17;;;0.90;;
13975;SDS011;7062;49.792;9.946;2023-04-03T15:47:27;1.40;;;1.13;;
13975;SDS011;7062;49.792;9.946;2023-04-03T15:49:54;2.37;;;1.13;;
13975;SDS011;7062;49.792;9.946;2023-04-03T15:52:20;1.53;;;0.80;;
13975;SDS011;7062;49.792;9.946;2023-04-03T15:54:46;2.07;;;0.97;;
13975;SDS011;7062;49.792;9.946;2023-04-03T15:57:11;3.73;;;0.93;;
13975;SDS011;7062;49.792;9.946;2023-04-03T15:59:37;1.63;;;0.93;;
13975;SDS011;7062;49.792;9.946;2023-04-03T16:02:03;2.47;;;0.80;;
13975;SDS011;7062;49.792;9.946;2023-04-03T16:04:32;1.57;;;0.70;;
13975;SDS011;7062;49.792;9.946;2023-04-03T16:07:02;0.90;;;0.60;;
13975;SDS011;7062;49.792;9.946;2023-04-03T16:09:30;0.90;;;0.57;;
13975;SDS011;7062;49.792;9.946;2023-04-03T16:11:57;3.20;;;1.40;;
13975;SDS011;7062;49.792;9.946;2023-04-03T16:14:23;2.77;;;1.40;;
13975;SDS011;7062;49.792;9.946;2023-04-03T16:16:49;4.37;;;1.20;;
13975;SDS011;7062;49.792;9.946;2023-04-03T16:19:14;2.10;;;1.03;;
13975;SDS011;7062;49.792;9.946;2023-04-03T16:21:40;3.50;;;1.10;;
13975;SDS011;7062;49.792;9.946;2023-04-03T16:24:06;2.40;;;1.00;;
13975;SDS011;7062;49.792;9.946;2023-04-03T16:26:31;3.73;;;1.30;;
13975;SDS011;7062;49.792;9.946;2023-04-03T16:28:57;4.27;;;1.10;;
13975;SDS011;7062;49.792;9.946;2023-04-03T16:31:23;2.43;;;1.13;;
13975;SDS011;7062;49.792;9.946;2023-04-03T16:33:50;2.20;;;1.07;;
13975;SDS011;7062;49.792;9.946;2023-04-03T16:36:15;2.73;;;1.10;;
13975;SDS011;7062;49.792;9.946;2023-04-03T16:38:41;3.90;;;1.03;;
13975;SDS011;7062;49.792;9.946;2023-04-03T16:41:07;3.73;;;1.10;;
13975;SDS011;7062;49.792;9.946;2023-04-03T16:43:33;2.40;;;1.23;;
13975;SDS011;7062;49.792;9.946;2023-04-03T16:46:00;2.37;;;0.80;;
13975;SDS011;7062;49.792;9.946;2023-04-03T16:48:27;1.07;;;0.50;;
13975;SDS011;7062;49.792;9.946;2023-04-03T16:50:53;1.90;;;0.97;;
13975;SDS011;7062;49.792;9.946;2023-04-03T16:53:22;3.57;;;1.03;;
13975;SDS011;7062;49.792;9.946;2023-04-03T16:55:49;1.57;;;0.73;;
13975;SDS011;7062;49.792;9.946;2023-04-03T16:58:15;3.13;;;1.00;;
13975;SDS011;7062;49.792;9.946;2023-04-03T17:00:41;1.93;;;0.80;;
13975;SDS011;7062;49.792;9.946;2023-04-03T17:03:07;2.70;;;0.80;;
13975;SDS011;7062;49.792;9.946;2023-04-03T17:05:33;2.50;;;0.93;;
13975;SDS011;7062;49.792;9.946;2023-04-03T17:07:59;2.57;;;0.80;;